Time;durP1;ratioP1;P1;durP2;ratioP2;P2;SDS_P1;SDS_P2;PMS_P1;PMS_P2;Temp;Humidity;BMP_temperature;BMP_pressure;BME280_temperature;BME280_humidity;BME280_pressure;Samples;Min_cycle;Max_cycle;Signal;HPM_P1;HPM_P2
2023/04/05 00:01:40;;;;;;;9.10;6.03;;;-3.80;1.00;-3.30;94276.00;;;;7395763;19;20171;-76
2023/04/05 00:04:09;;;;;;;11.57;6.53;;;-3.90;1.00;-3.40;94342.00;;;;7397153;19;20157;-75
2023/04/05 00:06:45;;;;;;;9.27;6.17;;;-3.90;1.00;-3.40;94338.00;;;;7399012;19;20143;-76
2023/04/05 00:09:12;;;;;;;9.93;5.50;;;-3.90;1.00;-3.40;94350.00;;;;7394882;19;20153;-74
2023/04/05 00:11:47;;;;;;;10.93;6.23;;;-3.90;1.00;-3.30;94288.00;;;;7395388;19;20161;-75
2023/04/05 00:14:14;;;;;;;8.07;6.23;;;-3.90;1.00;-3.40;94312.00;;;;7396646;19;20136;-77
2023/04/05 00:16:49;;;;;;;9.40;6.03;;;-3.90;1.00;-3.40;94333.00;;;;7397432;19;20165;-76
2023/04/05 00:19:16;;;;;;;7.60;5.57;;;-3.80;1.00;-3.50;94340.00;;;;7396946;19;20605;-76
2023/04/05 00:21:53;;;;;;;11.77;6.23;;;-3.90;1.00;-3.50;94344.00;;;;7398134;19;20122;-76
2023/04/05 00:24:20;;;;;;;7.73;6.03;;;-3.90;1.00;-3.50;94306.00;;;;7396951;19;20149;-74
2023/04/05 00:26:55;;;;;;;10.50;6.43;;;-4.00;1.00;-3.50;94311.00;;;;7397599;19;20128;-75
2023/04/05 00:29:22;;;;;;;10.67;6.10;;;-3.90;1.00;-3.50;94304.00;;;;7398348;19;20481;-75
2023/04/05 00:31:56;;;;;;;10.33;6.43;;;-3.90;1.00;-3.60;94343.00;;;;7385865;19;20132;-75
2023/04/05 00:34:23;;;;;;;10.00;5.63;;;-4.00;1.00;-3.50;94334.00;;;;7396178;19;20713;-74
2023/04/05 00:36:57;;;;;;;10.50;6.80;;;-4.00;1.00;-3.50;94329.00;;;;7399079;19;20217;-75
2023/04/05 00:39:24;;;;;;;12.60;7.13;;;-4.00;1.00;-3.50;94262.00;;;;7395337;19;20147;-76
2023/04/05 00:42:00;;;;;;;12.60;6.57;;;-4.00;1.00;-3.50;94324.00;;;;7404985;19;20208;-76
2023/04/05 00:44:28;;;;;;;9.90;6.63;;;-4.00;1.00;-3.40;94319.00;;;;7405651;19;20464;-76
2023/04/05 00:47:03;;;;;;;8.83;6.10;;;-4.00;1.00;-3.30;94335.00;;;;7403651;19;20168;-74
2023/04/05 00:49:33;;;;;;;9.57;6.50;;;-3.90;1.00;-3.20;94323.00;;;;7404780;19;20120;-75
2023/04/05 00:52:14;;;;;;;11.20;6.70;;;-3.80;1.00;-3.30;94324.00;;;;7401332;19;20182;-75
2023/04/05 00:54:50;;;;;;;10.27;6.70;;;-3.90;1.00;-3.40;94255.00;;;;7404104;19;20160;-75
2023/04/05 00:57:17;;;;;;;9.83;6.53;;;-3.80;1.00;-3.50;94319.00;;;;7403609;19;20135;-76
2023/04/05 00:59:51;;;;;;;11.67;6.67;;;-3.90;1.00;-3.40;94320.00;;;;7403601;19;20152;-76
2023/04/05 01:02:32;;;;;;;11.53;6.47;;;-3.90;1.00;-3.50;94318.00;;;;7400229;19;20187;-76
2023/04/05 01:05:44;;;;;;;9.37;6.93;;;-3.90;1.00;-3.40;94317.00;;;;7404455;19;20493;-76
2023/04/05 01:08:41;;;;;;;10.90;6.50;;;-3.90;1.00;-3.30;94294.00;;;;7397877;19;20165;-76
2023/04/05 01:11:10;;;;;;;9.10;5.93;;;-3.90;1.00;-3.30;94316.00;;;;7401030;19;20141;-76
2023/04/05 01:13:45;;;;;;;9.00;6.33;;;-3.90;1.00;-3.30;94273.00;;;;7402308;19;20135;-76
2023/04/05 01:16:19;;;;;;;8.67;5.80;;;-3.80;1.00;-3.40;94252.00;;;;7401886;19;21038;-76
2023/04/05 01:18:55;;;;;;;9.97;6.60;;;-3.90;1.00;-3.50;94213.00;;;;7402458;19;20611;-76
2023/04/05 01:21:36;;;;;;;10.43;6.20;;;-3.90;1.00;-3.50;94300.00;;;;7401962;19;20152;-76
2023/04/05 01:24:39;;;;;;;9.33;6.27;;;-4.00;1.00;-3.60;94299.00;;;;7402650;19;20591;-76
2023/04/05 01:27:16;;;;;;;11.13;6.53;;;-4.00;1.00;-3.60;94290.00;;;;7402387;19;20166;-76
2023/04/05 01:30:07;;;;;;;11.33;7.00;;;-4.00;1.00;-3.60;94292.00;;;;7403499;19;20144;-76
2023/04/05 01:33:27;;;;;;;11.90;7.23;;;-4.10;1.00;-3.50;94256.00;;;;7399403;19;20175;-76
2023/04/05 01:36:17;;;;;;;9.03;5.97;;;-4.10;1.00;-3.40;94261.00;;;;7399434;19;20196;-75
2023/04/05 01:38:53;;;;;;;11.93;6.30;;;-4.10;1.00;-3.50;94289.00;;;;7401587;19;20140;-76
2023/04/05 01:41:26;;;;;;;10.40;6.40;;;-4.10;1.00;-3.50;94255.00;;;;7401352;19;20192;-76
2023/04/05 01:44:00;;;;;;;9.80;5.93;;;-4.10;1.00;-3.60;94232.00;;;;7403819;19;20518;-76
2023/04/05 01:46:35;;;;;;;8.03;5.87;;;-4.00;1.00;-3.50;94195.00;;;;7400758;19;20619;-75
2023/04/05 01:49:11;;;;;;;9.80;6.33;;;-4.10;1.00;-3.60;94251.00;;;;7401351;19;20671;-75
2023/04/05 01:51:45;;;;;;;9.67;6.30;;;-4.10;1.00;-3.50;94279.00;;;;7400440;19;20149;-75
2023/04/05 01:54:18;;;;;;;11.10;6.67;;;-4.10;1.00;-3.60;94215.00;;;;7401393;19;20147;-75
2023/04/05 01:56:45;;;;;;;8.60;6.50;;;-4.10;1.00;-3.50;94270.00;;;;7400306;19;20144;-76
2023/04/05 01:59:19;;;;;;;12.27;7.30;;;-4.10;1.00;-3.60;94237.00;;;;7403039;19;20132;-76
2023/04/05 02:01:46;;;;;;;9.73;6.47;;;-4.20;1.00;-3.60;94224.00;;;;7401026;19;20212;-75
2023/04/05 02:04:20;;;;;;;11.60;6.73;;;-4.20;1.00;-3.50;94226.00;;;;7401909;19;20157;-75
2023/04/05 02:06:54;;;;;;;9.83;5.73;;;-4.20;1.00;-3.60;94236.00;;;;7402977;19;20131;-75
2023/04/05 02:09:28;;;;;;;10.93;6.43;;;-4.20;1.00;-3.60;94206.00;;;;7401787;19;20152;-75
2023/04/05 02:12:02;;;;;;;8.27;5.97;;;-4.10;1.00;-3.70;94178.00;;;;7400672;19;20126;-75
2023/04/05 02:14:37;;;;;;;9.83;5.67;;;-4.10;1.00;-3.70;94256.00;;;;7399699;19;20153;-75
2023/04/05 02:17:04;;;;;;;15.33;6.13;;;-4.20;1.00;-3.70;94258.00;;;;7403124;19;20128;-75
2023/04/05 02:19:36;;;;;;;10.13;6.37;;;-4.20;1.00;-3.70;94250.00;;;;7401572;19;20499;-75
2023/04/05 02:22:09;;;;;;;10.77;6.23;;;-4.20;1.00;-3.80;94227.00;;;;7401619;19;20177;-75
2023/04/05 02:24:36;;;;;;;11.30;6.83;;;-4.20;1.00;-3.90;94182.00;;;;7401691;19;20150;-74
2023/04/05 02:27:10;;;;;;;9.40;5.80;;;-4.30;1.00;-3.90;94206.00;;;;7402080;19;20128;-75
2023/04/05 02:29:44;;;;;;;9.43;6.07;;;-4.30;1.00;-3.90;94218.00;;;;7402272;19;20136;-75
2023/04/05 02:32:18;;;;;;;10.30;6.00;;;-4.30;1.00;-3.90;94203.00;;;;7400251;19;20155;-76
2023/04/05 02:34:52;;;;;;;10.77;6.83;;;-4.30;1.00;-3.90;94246.00;;;;7400383;19;20488;-76
2023/04/05 02:37:26;;;;;;;11.93;6.50;;;-4.30;1.00;-3.90;94193.00;;;;7399841;19;20200;-75
2023/04/05 02:40:02;;;;;;;10.97;6.23;;;-4.30;1.00;-3.90;94256.00;;;;7399068;19;20199;-76
2023/04/05 02:42:36;;;;;;;8.10;5.80;;;-4.20;1.00;-3.90;94247.00;;;;7400269;19;20144;-76
2023/04/05 02:45:12;;;;;;;10.93;7.00;;;-4.10;1.00;-3.90;94196.00;;;;7398878;19;20172;-77
2023/04/05 02:47:46;;;;;;;9.77;6.70;;;-4.10;1.00;-3.90;94238.00;;;;7398950;19;20132;-77
2023/04/05 02:50:14;;;;;;;9.83;6.40;;;-4.10;1.00;-3.90;94203.00;;;;7399207;19;20613;-76
2023/04/05 02:52:54;;;;;;;9.50;6.40;;;-4.20;1.00;-4.00;94202.00;;;;7397641;19;20152;-77
2023/04/05 02:55:21;;;;;;;8.77;5.93;;;-4.20;1.00;-4.00;94242.00;;;;7399508;19;20162;-77
2023/04/05 02:58:02;;;;;;;7.70;5.90;;;-4.20;1.00;-4.00;94212.00;;;;7401616;19;20155;-75
2023/04/05 03:00:35;;;;;;;9.40;6.80;;;-4.20;1.00;-4.00;94198.00;;;;7396995;19;20131;-76
2023/04/05 03:03:09;;;;;;;10.23;6.33;;;-4.10;1.00;-4.00;94236.00;;;;7398247;19;20127;-76
2023/04/05 03:05:36;;;;;;;8.17;5.90;;;-4.10;1.00;-4.00;94201.00;;;;7400958;19;20114;-76
2023/04/05 03:08:17;;;;;;;12.90;6.43;;;-4.10;1.00;-4.00;94203.00;;;;7398953;19;20591;-77
2023/04/05 03:10:50;;;;;;;8.93;6.23;;;-4.00;1.00;-4.00;94235.00;;;;7399731;19;20488;-75
2023/04/05 03:13:23;;;;;;;11.57;6.00;;;-4.00;1.00;-4.10;94229.00;;;;7393765;19;20136;-77
2023/04/05 03:15:57;;;;;;;11.33;6.20;;;-4.00;1.00;-3.90;94225.00;;;;7399048;19;20159;-76
2023/04/05 03:18:31;;;;;;;9.13;5.93;;;-4.00;1.00;-3.90;94202.00;;;;7400671;19;20206;-76
2023/04/05 03:21:10;;;;;;;7.43;5.30;;;-4.00;1.00;-3.90;94214.00;;;;7398903;19;20131;-75
2023/04/05 03:23:38;;;;;;;10.30;5.77;;;-4.00;1.00;-4.00;94226.00;;;;7399149;19;20127;-76
2023/04/05 03:26:13;;;;;;;8.20;5.27;;;-4.00;1.00;-3.90;94180.00;;;;7400284;19;20134;-77
2023/04/05 03:28:44;;;;;;;10.33;6.07;;;-4.10;1.00;-4.00;94157.00;;;;7400983;19;20156;-76
2023/04/05 03:31:17;;;;;;;8.10;5.50;;;-4.10;1.00;-4.00;94229.00;;;;7398761;19;20138;-77
2023/04/05 03:33:51;;;;;;;9.80;5.90;;;-4.10;1.00;-4.00;94217.00;;;;7398820;19;20155;-76
2023/04/05 03:36:18;;;;;;;9.77;6.13;;;-4.10;1.00;-4.00;94222.00;;;;7398831;19;20155;-76
2023/04/05 03:38:52;;;;;;;10.93;5.43;;;-4.20;1.00;-4.00;94166.00;;;;7398854;19;20493;-76
2023/04/05 03:41:19;;;;;;;9.97;5.80;;;-4.10;1.00;-4.00;94172.00;;;;7399040;19;20151;-76
2023/04/05 03:43:53;;;;;;;10.80;6.53;;;-4.10;1.00;-4.10;94179.00;;;;7398953;19;20132;-76
2023/04/05 03:46:20;;;;;;;8.77;5.70;;;-4.20;1.00;-4.00;94201.00;;;;7398215;19;20617;-76
2023/04/05 03:48:49;;;;;;;8.50;5.67;;;-4.10;1.00;-4.00;94210.00;;;;7400012;19;20131;-76
2023/04/05 03:51:31;;;;;;;10.17;6.23;;;-4.10;1.00;-4.10;94205.00;;;;7399519;19;20153;-76
2023/04/05 03:54:05;;;;;;;9.30;5.90;;;-4.20;1.00;-4.10;94186.00;;;;7399096;19;20120;-76
2023/04/05 03:56:38;;;;;;;11.67;6.50;;;-4.20;1.00;-4.10;94224.00;;;;7398620;19;20143;-76
2023/04/05 03:59:05;;;;;;;11.10;5.33;;;-4.20;1.00;-4.10;94196.00;;;;7398825;19;20134;-76
2023/04/05 04:01:39;;;;;;;9.33;6.40;;;-4.20;1.00;-4.10;94188.00;;;;7397159;19;20156;-77
2023/04/05 04:04:07;;;;;;;10.60;6.47;;;-4.20;1.00;-4.10;94165.00;;;;7398958;19;20194;-75
2023/04/05 04:06:34;;;;;;;9.40;5.60;;;-4.30;1.00;-4.40;94194.00;;;;7399953;19;20189;-75
2023/04/05 04:09:08;;;;;;;7.87;5.63;;;-4.30;1.00;-4.20;94214.00;;;;7392412;19;20149;-74
2023/04/05 04:11:35;;;;;;;9.27;6.07;;;-4.30;1.00;-4.20;94168.00;;;;7400625;19;20137;-75
2023/04/05 04:14:09;;;;;;;10.77;6.13;;;-4.40;1.00;-4.20;94224.00;;;;7405290;19;20167;-74
2023/04/05 04:16:43;;;;;;;8.83;6.20;;;-4.40;1.00;-4.20;94218.00;;;;7404401;19;20169;-75
2023/04/05 04:19:18;;;;;;;10.40;6.00;;;-4.40;1.00;-4.20;94185.00;;;;7407164;19;20153;-74
2023/04/05 04:21:50;;;;;;;11.00;5.93;;;-4.40;1.00;-4.20;94215.00;;;;7406089;19;20138;-76
2023/04/05 04:24:25;;;;;;;8.70;6.20;;;-4.50;1.00;-4.30;94217.00;;;;7404201;19;20160;-75
2023/04/05 04:26:59;;;;;;;12.80;6.30;;;-4.50;1.00;-4.30;94209.00;;;;7406150;19;20464;-75
2023/04/05 04:29:37;;;;;;;9.00;5.77;;;-4.50;1.00;-4.20;94125.00;;;;7404961;19;20588;-75
2023/04/05 04:32:06;;;;;;;7.40;5.33;;;-4.40;1.00;-4.20;94196.00;;;;7402234;19;20529;-75
2023/04/05 04:34:43;;;;;;;8.27;5.37;;;-4.40;1.00;-4.20;94214.00;;;;7404662;19;20136;-75
2023/04/05 04:37:17;;;;;;;9.73;5.40;;;-4.40;1.00;-4.20;94210.00;;;;7404122;19;20145;-74
2023/04/05 04:39:46;;;;;;;8.90;5.63;;;-4.40;1.00;-4.20;94219.00;;;;7405262;19;20497;-74
2023/04/05 04:42:21;;;;;;;7.73;5.17;;;-4.40;1.00;-4.20;94140.00;;;;7406216;19;20132;-74
2023/04/05 04:44:48;;;;;;;8.40;5.27;;;-4.40;1.00;-4.20;94178.00;;;;7404321;19;20173;-75
2023/04/05 04:47:22;;;;;;;9.40;5.20;;;-4.40;1.00;-4.20;94168.00;;;;7403789;19;20476;-75
2023/04/05 04:49:49;;;;;;;7.77;5.87;;;-4.30;1.00;-4.10;94217.00;;;;7404433;19;20153;-74
2023/04/05 04:52:29;;;;;;;11.50;6.27;;;-4.30;1.00;-4.10;94161.00;;;;7402460;19;20134;-74
2023/04/05 04:55:04;;;;;;;6.67;4.93;;;-4.30;1.00;-4.00;94206.00;;;;7400867;19;20213;-74
2023/04/05 04:57:31;;;;;;;7.13;4.83;;;-4.20;1.00;-4.00;94151.00;;;;7404115;19;20203;-74
2023/04/05 05:00:11;;;;;;;7.90;5.53;;;-4.20;1.00;-4.10;94205.00;;;;7404200;19;20148;-74
2023/04/05 05:02:46;;;;;;;6.77;5.13;;;-4.20;1.00;-4.10;94204.00;;;;7401867;19;20602;-74
2023/04/05 05:05:21;;;;;;;7.57;4.90;;;-4.30;1.00;-4.20;94149.00;;;;7401242;19;20113;-74
2023/04/05 05:07:48;;;;;;;8.67;6.30;;;-4.30;1.00;-4.00;94209.00;;;;7403218;19;20593;-74
2023/04/05 05:10:15;;;;;;;9.17;5.40;;;-4.30;1.00;-3.90;94185.00;;;;7395374;19;20150;-74
2023/04/05 05:12:50;;;;;;;9.00;5.70;;;-4.20;1.00;-3.80;94235.00;;;;7399132;19;20736;-73
2023/04/05 05:15:24;;;;;;;8.13;5.90;;;-4.10;1.00;-3.80;94208.00;;;;7398744;19;20119;-73
2023/04/05 05:17:58;;;;;;;9.33;6.20;;;-4.00;1.00;-3.70;94233.00;;;;7401482;19;20131;-74
2023/04/05 05:20:29;;;;;;;8.47;5.70;;;-4.00;1.00;-3.60;94225.00;;;;7400658;19;20664;-74
2023/04/05 05:23:04;;;;;;;8.53;5.63;;;-3.90;1.00;-3.50;94225.00;;;;7398094;19;20150;-74
2023/04/05 05:25:31;;;;;;;7.90;5.40;;;-3.80;1.00;-3.40;94180.00;;;;7398582;19;20162;-74
2023/04/05 05:28:06;;;;;;;9.63;5.43;;;-3.70;99.90;-3.30;94195.00;;;;7398884;19;20131;-74
2023/04/05 05:30:40;;;;;;;7.93;5.50;;;-3.60;99.90;-3.30;94216.00;;;;7397843;19;20138;-74
2023/04/05 05:33:17;;;;;;;8.63;5.77;;;-3.60;1.40;-3.20;94212.00;;;;7400464;19;20507;-74
2023/04/05 05:35:51;;;;;;;8.57;5.07;;;-3.50;99.90;-3.00;94219.00;;;;7400773;19;20614;-74
2023/04/05 05:38:25;;;;;;;6.43;5.50;;;-3.30;99.90;-2.80;94216.00;;;;7404345;19;20148;-75
2023/04/05 05:40:59;;;;;;;8.80;5.60;;;-3.20;99.90;-2.60;94200.00;;;;7387831;19;20125;-74
2023/04/05 05:43:33;;;;;;;8.93;5.40;;;-3.00;99.90;-2.40;94155.00;;;;7377862;19;20199;-75
2023/04/05 05:46:07;;;;;;;10.30;4.90;;;-2.90;99.90;-2.10;94186.00;;;;7385204;19;20163;-76
2023/04/05 05:48:35;;;;;;;9.30;5.03;;;-2.70;99.90;-2.10;94157.00;;;;7385298;19;20125;-75
2023/04/05 05:51:15;;;;;;;7.20;4.20;;;-2.50;99.90;-2.00;94221.00;;;;7384161;19;20203;-74
2023/04/05 05:53:50;;;;;;;6.03;4.50;;;-2.40;99.90;-2.00;94188.00;;;;7384685;19;20157;-76
2023/04/05 05:56:23;;;;;;;5.73;4.43;;;-2.30;99.90;-1.80;94219.00;;;;7388024;19;20129;-76
2023/04/05 05:58:50;;;;;;;7.73;4.83;;;-2.20;99.90;-1.60;94218.00;;;;7384128;19;20487;-77
2023/04/05 06:01:28;;;;;;;5.93;4.13;;;-2.10;99.90;-1.30;94225.00;;;;7384833;19;20671;-75
2023/04/05 06:04:06;;;;;;;6.37;4.63;;;-1.90;99.90;-0.80;94193.00;;;;7387192;19;20147;-75
2023/04/05 06:06:42;;;;;;;7.33;4.47;;;-1.60;99.90;-0.40;94116.00;;;;7386804;19;20459;-77
2023/04/05 06:09:17;;;;;;;7.00;4.43;;;-1.40;99.90;-0.20;94179.00;;;;7381784;19;20152;-76
2023/04/05 06:11:44;;;;;;;9.47;4.53;;;-1.10;99.90;-0.20;94163.00;;;;7388235;19;20132;-75
2023/04/05 06:14:24;;;;;;;5.33;4.03;;;-0.90;86.20;-0.30;94211.00;;;;7385740;19;20144;-75
2023/04/05 06:16:58;;;;;;;8.33;4.47;;;-0.80;65.80;-0.30;94210.00;;;;7386073;19;20137;-76
2023/04/05 06:19:27;;;;;;;9.33;4.80;;;-0.70;56.40;-0.30;94201.00;;;;7387055;19;20498;-75
2023/04/05 06:22:01;;;;;;;6.67;3.80;;;-0.70;87.00;-0.40;94171.00;;;;7385179;19;20152;-76
2023/04/05 06:24:30;;;;;;;5.27;3.90;;;-0.70;94.80;-0.30;94237.00;;;;7386178;19;20133;-76
2023/04/05 06:27:04;;;;;;;7.60;4.23;;;-0.70;99.90;0.00;94238.00;;;;7386859;19;20141;-77
2023/04/05 06:29:31;;;;;;;9.97;4.70;;;-0.70;99.90;0.40;94193.00;;;;7385213;19;20133;-76
2023/04/05 06:32:05;;;;;;;6.67;4.37;;;-0.50;99.90;0.70;94229.00;;;;7384901;19;20213;-76
2023/04/05 06:34:33;;;;;;;7.83;4.10;;;-0.40;97.90;1.50;94228.00;;;;7383538;19;20837;-76
2023/04/05 06:37:06;;;;;;;6.30;4.27;;;-0.10;91.00;2.00;94242.00;;;;7384396;19;20527;-75
2023/04/05 06:39:40;;;;;;;6.13;4.00;;;0.00;46.50;2.60;94197.00;;;;7385732;19;20133;-76
2023/04/05 06:42:14;;;;;;;6.27;3.90;;;0.30;1.00;3.20;94225.00;;;;7385410;19;20608;-76
2023/04/05 06:44:49;;;;;;;6.13;4.43;;;0.60;6.20;3.60;94206.00;;;;7384373;19;20157;-75
2023/04/05 06:47:17;;;;;;;6.60;3.93;;;0.80;1.00;3.90;94145.00;;;;7385592;19;20127;-75
2023/04/05 06:49:50;;;;;;;6.90;4.00;;;1.00;1.00;3.70;94194.00;;;;7386560;19;20132;-75
2023/04/05 06:52:24;;;;;;;5.67;3.93;;;1.10;1.00;3.90;94218.00;;;;7384969;19;20152;-75
2023/04/05 06:55:07;;;;;;;5.03;3.60;;;1.40;1.00;4.50;94208.00;;;;7385173;19;20509;-75
2023/04/05 06:57:40;;;;;;;6.97;4.00;;;1.50;1.00;4.80;94231.00;;;;7382819;19;20140;-75
2023/04/05 07:00:16;;;;;;;6.10;4.23;;;1.70;1.00;4.80;94219.00;;;;7383437;19;20152;-76
2023/04/05 07:02:43;;;;;;;6.50;4.07;;;1.90;1.00;4.30;94190.00;;;;7384128;19;20157;-76
2023/04/05 07:05:17;;;;;;;6.40;3.67;;;2.00;1.00;4.30;94209.00;;;;7384510;19;20644;-75
2023/04/05 07:07:53;;;;;;;4.77;3.30;;;2.30;1.00;4.20;94224.00;;;;7384484;19;20606;-76
2023/04/05 07:10:21;;;;;;;6.83;3.60;;;2.60;1.00;4.50;94235.00;;;;7380570;19;20606;-74
2023/04/05 07:12:55;;;;;;;6.80;4.00;;;2.80;1.00;4.80;94205.00;;;;7384160;19;20179;-76
2023/04/05 07:15:22;;;;;;;5.37;3.70;;;2.90;1.00;4.80;94198.00;;;;7384776;19;20503;-76
2023/04/05 07:17:56;;;;;;;5.47;3.77;;;3.00;1.00;4.60;94236.00;;;;7383800;19;20157;-75
2023/04/05 07:20:23;;;;;;;5.70;4.00;;;3.20;1.00;4.60;94223.00;;;;7383631;19;20192;-75
2023/04/05 07:22:51;;;;;;;5.97;3.60;;;3.40;1.00;4.90;94237.00;;;;7383605;19;20496;-75
2023/04/05 07:25:26;;;;;;;4.53;3.53;;;3.50;1.00;5.70;94227.00;;;;7384388;19;20619;-75
2023/04/05 07:28:00;;;;;;;6.67;4.00;;;3.70;1.00;5.30;94223.00;;;;7381142;19;20949;-73
2023/04/05 07:30:35;;;;;;;7.27;3.47;;;3.90;1.00;5.90;94228.00;;;;7381399;19;20547;-74
2023/04/05 07:33:03;;;;;;;9.07;3.47;;;4.10;1.00;6.10;94232.00;;;;7383800;19;20146;-73
2023/04/05 07:35:37;;;;;;;5.00;4.00;;;4.00;1.00;6.50;94224.00;;;;7383465;19;20151;-74
2023/04/05 07:38:05;;;;;;;5.77;3.67;;;4.10;1.00;6.50;94234.00;;;;7383135;19;20136;-74
2023/04/05 07:40:39;;;;;;;5.00;3.30;;;4.00;1.00;6.20;94149.00;;;;7384548;19;20142;-73
2023/04/05 07:43:07;;;;;;;6.83;3.43;;;4.20;1.00;5.80;94208.00;;;;7383551;19;20155;-74
2023/04/05 07:45:40;;;;;;;4.33;3.07;;;4.20;1.00;6.20;94154.00;;;;7383005;19;20145;-73
2023/04/05 07:48:08;;;;;;;5.13;3.77;;;4.30;1.00;6.70;94224.00;;;;7382627;19;20232;-73
2023/04/05 07:50:46;;;;;;;5.47;3.40;;;4.60;1.00;6.70;94224.00;;;;7380351;19;20153;-74
2023/04/05 07:53:27;;;;;;;4.40;3.20;;;4.80;1.00;6.60;94240.00;;;;7381639;19;20165;-74
2023/04/05 07:56:07;;;;;;;5.23;3.67;;;5.10;1.00;6.10;94243.00;;;;7381770;19;20185;-74
2023/04/05 07:58:40;;;;;;;6.10;3.53;;;5.10;1.00;5.80;94254.00;;;;7382674;19;20168;-74
2023/04/05 08:01:16;;;;;;;6.27;3.63;;;5.10;1.00;6.60;94169.00;;;;7382593;19;20176;-74
2023/04/05 08:03:50;;;;;;;4.67;3.70;;;5.10;1.00;6.60;94227.00;;;;7381675;19;20152;-74
2023/04/05 08:06:19;;;;;;;5.33;4.10;;;5.30;1.00;7.30;94247.00;;;;7382675;19;20480;-75
2023/04/05 08:08:53;;;;;;;4.18;3.70;;;5.30;1.00;7.70;94244.00;;;;7377788;19;20147;-75
2023/04/05 08:11:20;;;;;;;5.47;3.40;;;5.60;1.00;7.70;94225.00;;;;7381011;19;20822;-75
2023/04/05 08:13:54;;;;;;;7.55;3.72;;;5.50;1.00;7.90;94231.00;;;;7384140;19;20132;-74
2023/04/05 08:16:29;;;;;;;4.95;3.75;;;5.70;1.00;8.30;94234.00;;;;7382470;19;20152;-75
2023/04/05 08:19:02;;;;;;;4.70;3.55;;;5.70;1.00;8.20;94246.00;;;;7382021;19;20165;-74
2023/04/05 08:21:36;;;;;;;5.72;3.63;;;5.80;1.00;8.80;94264.00;;;;7382011;19;20130;-75
2023/04/05 08:24:10;;;;;;;6.63;3.72;;;5.90;1.00;8.20;94255.00;;;;7381890;19;20137;-74
2023/04/05 08:26:44;;;;;;;5.72;4.30;;;5.90;1.00;8.70;94237.00;;;;7383989;19;20572;-74
2023/04/05 08:29:12;;;;;;;6.50;4.03;;;5.80;1.00;8.80;94242.00;;;;7381121;19;20144;-74
2023/04/05 08:31:46;;;;;;;5.05;3.88;;;6.10;1.00;8.50;94263.00;;;;7381832;19;20152;-75
2023/04/05 08:34:14;;;;;;;6.15;4.00;;;6.30;1.00;8.70;94254.00;;;;7381369;19;20149;-73
2023/04/05 08:36:48;;;;;;;6.60;4.50;;;6.20;1.00;8.10;94219.00;;;;7381452;19;20168;-74
2023/04/05 08:39:17;;;;;;;6.05;4.25;;;6.30;1.00;7.90;94259.00;;;;7381360;19;20151;-74
2023/04/05 08:42:07;;;;;;;6.00;4.28;;;6.30;1.00;8.20;94223.00;;;;7382622;19;20133;-73
2023/04/05 08:44:38;;;;;;;6.25;4.53;;;6.30;1.00;8.50;94240.00;;;;7380444;19;20159;-74
2023/04/05 08:47:18;;;;;;;10.45;4.95;;;6.30;1.00;8.00;94226.00;;;;7381777;19;20542;-73
2023/04/05 08:49:53;;;;;;;6.63;3.97;;;6.30;1.00;8.70;94248.00;;;;7380700;19;20195;-72
2023/04/05 08:52:30;;;;;;;7.45;4.30;;;6.50;1.00;9.00;94242.00;;;;7381922;19;20172;-73
2023/04/05 08:55:05;;;;;;;6.53;4.43;;;6.60;1.00;8.30;94222.00;;;;7370854;19;20149;-73
2023/04/05 08:57:42;;;;;;;5.47;4.35;;;7.00;1.00;9.10;94256.00;;;;7382391;19;20159;-73
2023/04/05 09:00:18;;;;;;;7.45;4.65;;;6.70;1.00;9.30;94264.00;;;;7387802;19;20667;-73
2023/04/05 09:02:54;;;;;;;9.00;4.53;;;6.50;1.00;8.40;94218.00;;;;7385518;19;20180;-73
2023/04/05 09:05:30;;;;;;;6.32;4.53;;;6.80;1.00;9.30;94232.00;;;;7386037;19;20607;-74
2023/04/05 09:08:05;;;;;;;6.25;4.68;;;7.00;1.00;9.70;94262.00;;;;7383287;19;20626;-73
2023/04/05 09:10:40;;;;;;;5.60;4.40;;;7.20;1.00;10.30;94252.00;;;;7381241;19;20148;-74
2023/04/05 09:13:07;;;;;;;6.20;4.55;;;7.50;1.00;10.00;94247.00;;;;7386257;19;20163;-74
2023/04/05 09:15:42;;;;;;;6.57;4.38;;;7.70;1.00;10.20;94219.00;;;;7386046;19;20168;-73
2023/04/05 09:18:10;;;;;;;6.47;3.97;;;7.80;1.00;10.00;94248.00;;;;7386188;19;20133;-73
2023/04/05 09:21:03;;;;;;;4.45;3.85;;;7.90;1.00;10.20;94243.00;;;;7382751;19;20159;-72
2023/04/05 09:23:52;;;;;;;8.07;4.20;;;8.20;1.00;10.10;94271.00;;;;7385967;19;20615;-73
2023/04/05 09:26:26;;;;;;;4.00;3.58;;;8.60;1.00;10.60;94254.00;;;;7385347;19;20185;-74
2023/04/05 09:29:02;;;;;;;6.22;4.55;;;9.00;1.00;10.80;94267.00;;;;7385634;19;20204;-73
2023/04/05 09:31:36;;;;;;;5.43;3.83;;;8.80;1.00;9.70;94260.00;;;;7385296;19;20152;-74
2023/04/05 09:34:05;;;;;;;7.28;4.60;;;8.40;1.00;10.10;94266.00;;;;7384198;19;20145;-76
2023/04/05 09:36:44;;;;;;;6.13;3.80;;;8.10;1.00;10.10;94259.00;;;;7386600;19;20156;-75
2023/04/05 09:39:11;;;;;;;7.28;3.85;;;8.30;1.00;9.20;94283.00;;;;7384014;19;20197;-76
2023/04/05 09:42:13;;;;;;;6.13;4.03;;;8.10;1.00;9.80;94259.00;;;;7384496;19;20156;-77
2023/04/05 09:45:05;;;;;;;8.00;4.30;;;8.00;1.00;10.70;94268.00;;;;7385219;19;20159;-76
2023/04/05 09:47:40;;;;;;;5.22;3.75;;;8.30;1.00;10.20;94264.00;;;;7384159;19;20160;-75
2023/04/05 09:50:19;;;;;;;4.57;3.72;;;8.40;1.00;11.20;94236.00;;;;7386268;19;20143;-75
2023/04/05 09:52:53;;;;;;;4.82;4.15;;;8.70;1.00;11.00;94259.00;;;;7385113;19;20172;-75
2023/04/05 09:55:28;;;;;;;6.55;4.18;;;8.70;1.00;10.60;94230.00;;;;7385068;19;20133;-77
2023/04/05 09:58:03;;;;;;;5.10;4.35;;;8.70;1.00;11.10;94252.00;;;;7383708;19;20566;-74
2023/04/05 10:00:36;;;;;;;4.72;4.10;;;8.60;1.00;10.40;94262.00;;;;7384833;19;20156;-73
2023/04/05 10:03:04;;;;;;;5.00;4.20;;;8.60;1.00;10.50;94252.00;;;;7385984;19;20479;-73
2023/04/05 10:05:32;;;;;;;6.55;4.43;;;8.80;1.00;11.30;94256.00;;;;7385773;19;20193;-74
2023/04/05 10:08:07;;;;;;;5.18;4.40;;;9.00;1.00;11.10;94252.00;;;;7379725;19;20144;-76
2023/04/05 10:10:53;;;;;;;5.95;4.28;;;9.40;1.00;11.50;94212.00;;;;7385205;19;20156;-77
2023/04/05 10:13:29;;;;;;;4.78;3.90;;;9.60;1.00;11.50;94222.00;;;;7385127;19;20204;-77
2023/04/05 10:16:01;;;;;;;6.03;4.50;;;9.80;1.00;10.30;94210.00;;;;7383565;19;20160;-74
2023/04/05 10:18:48;;;;;;;5.72;4.72;;;9.90;1.00;10.10;94235.00;;;;7385311;19;20186;-74
2023/04/05 10:21:22;;;;;;;6.53;4.70;;;10.00;1.00;11.10;94209.00;;;;7387876;19;20136;-76
2023/04/05 10:24:27;;;;;;;7.70;5.00;;;9.60;1.00;10.60;94221.00;;;;7385648;19;20168;-78
2023/04/05 10:27:34;;;;;;;6.30;4.43;;;9.20;1.00;10.70;94226.00;;;;7385017;19;20657;-75
2023/04/05 10:30:10;;;;;;;8.15;4.07;;;8.80;1.00;11.70;94217.00;;;;7384483;19;20496;-76
2023/04/05 10:33:23;;;;;;;5.85;4.30;;;9.40;1.00;11.20;94243.00;;;;7384701;19;20144;-75
2023/04/05 10:36:36;;;;;;;4.35;3.78;;;10.00;1.00;11.00;94230.00;;;;7386771;19;20142;-76
2023/04/05 10:39:22;;;;;;;6.25;4.30;;;10.20;1.00;11.00;94235.00;;;;7384704;19;20667;-75
2023/04/05 10:42:25;;;;;;;6.20;4.18;;;10.60;1.00;12.50;94230.00;;;;7384873;19;20179;-77
2023/04/05 10:45:08;;;;;;;7.68;4.40;;;10.80;1.00;12.20;94240.00;;;;7384810;19;20490;-76
2023/04/05 10:47:46;;;;;;;6.20;4.35;;;11.20;1.00;13.20;94213.00;;;;7384968;19;20167;-76
2023/04/05 10:50:24;;;;;;;5.20;3.83;;;11.00;1.00;13.10;94233.00;;;;7386979;19;20137;-77
2023/04/05 10:53:00;;;;;;;4.63;4.10;;;11.30;1.00;13.60;94200.00;;;;7385079;19;20177;-76
2023/04/05 10:55:41;;;;;;;6.38;4.10;;;11.60;1.00;13.80;94208.00;;;;7384272;19;21654;-76
2023/04/05 10:58:09;;;;;;;8.45;4.47;;;12.00;1.00;13.70;94209.00;;;;7383536;19;20155;-75
2023/04/05 11:00:47;;;;;;;5.35;4.38;;;11.90;1.00;13.30;94184.00;;;;7383482;19;20148;-77
2023/04/05 11:03:47;;;;;;;5.93;4.10;;;12.00;1.00;13.70;94227.00;;;;7384123;19;20148;-76
2023/04/05 11:06:27;;;;;;;4.57;3.67;;;12.30;1.00;13.40;94228.00;;;;7384398;19;20148;-75
2023/04/05 11:09:14;;;;;;;5.90;4.25;;;;;13.40;94227.00;;;;7382058;19;20187;-77
2023/04/05 11:11:50;;;;;;;4.70;3.90;;;;;14.40;94221.00;;;;7385475;19;20155;-76
2023/04/05 11:14:38;;;;;;;8.73;4.20;;;12.70;1.00;13.90;94220.00;;;;7384169;19;20701;-77
2023/04/05 11:17:39;;;;;;;4.40;3.97;;;12.20;1.00;11.70;94212.00;;;;7386277;19;20176;-76
2023/04/05 11:20:20;;;;;;;5.97;3.90;;;12.70;1.00;13.70;94225.00;;;;7382373;19;20151;-75
2023/04/05 11:22:53;;;;;;;6.20;3.97;;;12.70;1.00;13.90;94213.00;;;;7384547;19;20208;-76
2023/04/05 11:25:39;;;;;;;7.75;4.70;;;12.60;1.00;13.40;94214.00;;;;7384808;19;20157;-75
2023/04/05 11:28:10;;;;;;;5.63;4.32;;;12.80;1.00;14.20;94220.00;;;;7385387;19;20200;-76
2023/04/05 11:30:57;;;;;;;6.00;4.45;;;13.20;1.00;14.40;94218.00;;;;7388441;19;20141;-75
2023/04/05 11:33:54;;;;;;;4.57;4.18;;;13.10;1.00;15.00;94215.00;;;;7385771;19;20573;-74
2023/04/05 11:36:47;;;;;;;4.68;4.25;;;12.60;1.00;13.40;94200.00;;;;7382579;19;20140;-78
2023/04/05 11:39:20;;;;;;;6.63;4.30;;;12.00;1.00;14.50;94205.00;;;;7381759;19;20140;-77
2023/04/05 11:42:14;;;;;;;6.10;4.15;;;12.60;1.00;15.00;94213.00;;;;7380308;19;20631;-77